sensor_id;sensor_type;location;lat;lon;timestamp;temperature;humidity
71839;SHT31;59687;37.520;15.068;2022-10-17T00:01:38;17.06;80.74
71839;SHT31;59687;37.520;15.068;2022-10-17T00:04:05;17.05;80.85
71839;SHT31;59687;37.520;15.068;2022-10-17T00:06:32;17.06;81.03
71839;SHT31;59687;37.520;15.068;2022-10-17T00:08:59;17.05;81.00
71839;SHT31;59687;37.520;15.068;2022-10-17T00:11:26;17.01;81.11
71839;SHT31;59687;37.520;15.068;2022-10-17T00:13:55;17.01;81.30
71839;SHT31;59687;37.520;15.068;2022-10-17T00:16:27;16.98;81.40
71839;SHT31;59687;37.520;15.068;2022-10-17T00:18:55;17.01;81.59
71839;SHT31;59687;37.520;15.068;2022-10-17T00:21:22;17.02;81.67
71839;SHT31;59687;37.520;15.068;2022-10-17T00:23:50;16.99;81.70
71839;SHT31;59687;37.520;15.068;2022-10-17T00:26:17;16.98;81.69
71839;SHT31;59687;37.520;15.068;2022-10-17T00:28:46;16.98;81.85
71839;SHT31;59687;37.520;15.068;2022-10-17T00:31:15;16.99;81.98
71839;SHT31;59687;37.520;15.068;2022-10-17T00:33:42;16.98;82.08
71839;SHT31;59687;37.520;15.068;2022-10-17T00:36:15;16.98;82.15
71839;SHT31;59687;37.520;15.068;2022-10-17T00:38:45;16.99;82.26
71839;SHT31;59687;37.520;15.068;2022-10-17T00:41:15;17.01;82.33
71839;SHT31;59687;37.520;15.068;2022-10-17T00:46:44;17.05;82.40
71839;SHT31;59687;37.520;15.068;2022-10-17T00:49:11;17.12;82.34
71839;SHT31;59687;37.520;15.068;2022-10-17T00:51:57;17.19;82.26
71839;SHT31;59687;37.520;15.068;2022-10-17T00:54:30;17.24;82.00
71839;SHT31;59687;37.520;15.068;2022-10-17T00:56:59;17.30;81.84
71839;SHT31;59687;37.520;15.068;2022-10-17T00:59:28;17.34;81.68
71839;SHT31;59687;37.520;15.068;2022-10-17T01:02:02;17.36;81.56
71839;SHT31;59687;37.520;15.068;2022-10-17T01:04:30;17.33;81.38
71839;SHT31;59687;37.520;15.068;2022-10-17T01:06:57;17.29;81.23
71839;SHT31;59687;37.520;15.068;2022-10-17T01:09:25;17.27;81.26
71839;SHT31;59687;37.520;15.068;2022-10-17T01:12:06;17.22;81.27
71839;SHT31;59687;37.520;15.068;2022-10-17T01:25:26;16.99;81.97
71839;SHT31;59687;37.520;15.068;2022-10-17T01:36:48;16.82;82.47
71839;SHT31;59687;37.520;15.068;2022-10-17T01:44:44;16.75;82.94
71839;SHT31;59687;37.520;15.068;2022-10-17T01:47:16;16.72;83.07
71839;SHT31;59687;37.520;15.068;2022-10-17T01:49:46;16.69;83.18
71839;SHT31;59687;37.520;15.068;2022-10-17T01:52:22;16.68;83.37
71839;SHT31;59687;37.520;15.068;2022-10-17T01:54:54;16.68;83.56
71839;SHT31;59687;37.520;15.068;2022-10-17T01:57:27;16.64;83.56
71839;SHT31;59687;37.520;15.068;2022-10-17T01:59:55;16.61;83.57
71839;SHT31;59687;37.520;15.068;2022-10-17T02:02:24;16.64;83.65
71839;SHT31;59687;37.520;15.068;2022-10-17T02:04:54;16.60;83.72
71839;SHT31;59687;37.520;15.068;2022-10-17T02:07:22;16.58;83.82
71839;SHT31;59687;37.520;15.068;2022-10-17T02:09:49;16.60;83.92
71839;SHT31;59687;37.520;15.068;2022-10-17T02:15:04;16.54;84.09
71839;SHT31;59687;37.520;15.068;2022-10-17T02:23:09;16.50;84.29
71839;SHT31;59687;37.520;15.068;2022-10-17T02:25:56;16.49;84.40
71839;SHT31;59687;37.520;15.068;2022-10-17T02:31:21;16.46;84.57
71839;SHT31;59687;37.520;15.068;2022-10-17T02:33:57;16.44;84.76
71839;SHT31;59687;37.520;15.068;2022-10-17T02:36:29;16.47;84.79
71839;SHT31;59687;37.520;15.068;2022-10-17T02:38:58;16.46;84.77
71839;SHT31;59687;37.520;15.068;2022-10-17T02:41:27;16.43;84.79
71839;SHT31;59687;37.520;15.068;2022-10-17T02:43:56;16.43;84.73
71839;SHT31;59687;37.520;15.068;2022-10-17T02:46:27;16.41;84.70
71839;SHT31;59687;37.520;15.068;2022-10-17T02:49:25;16.43;84.79
71839;SHT31;59687;37.520;15.068;2022-10-17T02:52:04;16.43;84.71
71839;SHT31;59687;37.520;15.068;2022-10-17T02:54:51;16.46;84.69
71839;SHT31;59687;37.520;15.068;2022-10-17T03:00:09;16.44;84.63
71839;SHT31;59687;37.520;15.068;2022-10-17T03:02:47;16.47;84.58
71839;SHT31;59687;37.520;15.068;2022-10-17T03:05:20;16.47;84.55
71839;SHT31;59687;37.520;15.068;2022-10-17T03:07:48;16.47;84.53
71839;SHT31;59687;37.520;15.068;2022-10-17T03:10:15;16.50;84.49
71839;SHT31;59687;37.520;15.068;2022-10-17T03:12:42;16.51;84.41
71839;SHT31;59687;37.520;15.068;2022-10-17T03:15:11;16.51;84.37
71839;SHT31;59687;37.520;15.068;2022-10-17T03:17:39;16.51;84.33
71839;SHT31;59687;37.520;15.068;2022-10-17T03:20:08;16.51;84.24
71839;SHT31;59687;37.520;15.068;2022-10-17T03:22:35;16.51;84.20
71839;SHT31;59687;37.520;15.068;2022-10-17T03:25:03;16.47;84.21
71839;SHT31;59687;37.520;15.068;2022-10-17T03:27:33;16.46;84.19
71839;SHT31;59687;37.520;15.068;2022-10-17T03:30:02;16.41;84.20
71839;SHT31;59687;37.520;15.068;2022-10-17T03:32:33;16.41;84.37
71839;SHT31;59687;37.520;15.068;2022-10-17T03:35:01;16.39;84.43
71839;SHT31;59687;37.520;15.068;2022-10-17T03:37:28;16.37;84.49
71839;SHT31;59687;37.520;15.068;2022-10-17T03:39:57;16.36;84.64
71839;SHT31;59687;37.520;15.068;2022-10-17T03:42:24;16.33;84.69
71839;SHT31;59687;37.520;15.068;2022-10-17T03:44:51;16.33;84.72
71839;SHT31;59687;37.520;15.068;2022-10-17T03:47:18;16.29;84.79
71839;SHT31;59687;37.520;15.068;2022-10-17T03:49:45;16.27;84.96
71839;SHT31;59687;37.520;15.068;2022-10-17T03:52:14;16.27;85.00
71839;SHT31;59687;37.520;15.068;2022-10-17T03:54:41;16.24;85.06
71839;SHT31;59687;37.520;15.068;2022-10-17T03:57:09;16.23;85.10
71839;SHT31;59687;37.520;15.068;2022-10-17T03:59:37;16.23;85.18
71839;SHT31;59687;37.520;15.068;2022-10-17T04:02:10;16.19;85.11
71839;SHT31;59687;37.520;15.068;2022-10-17T04:04:37;16.17;85.07
71839;SHT31;59687;37.520;15.068;2022-10-17T04:07:08;16.16;85.14
71839;SHT31;59687;37.520;15.068;2022-10-17T04:09:38;16.16;85.17
71839;SHT31;59687;37.520;15.068;2022-10-17T04:12:09;16.16;85.21
71839;SHT31;59687;37.520;15.068;2022-10-17T04:14:37;16.15;85.22
71839;SHT31;59687;37.520;15.068;2022-10-17T04:17:04;16.12;85.18
71839;SHT31;59687;37.520;15.068;2022-10-17T04:19:33;16.09;85.19
71839;SHT31;59687;37.520;15.068;2022-10-17T04:22:01;16.10;85.17
71839;SHT31;59687;37.520;15.068;2022-10-17T04:24:33;16.08;85.16
71839;SHT31;59687;37.520;15.068;2022-10-17T04:27:08;16.06;85.26
71839;SHT31;59687;37.520;15.068;2022-10-17T04:29:39;16.05;85.34
71839;SHT31;59687;37.520;15.068;2022-10-17T04:32:21;16.01;85.35
71839;SHT31;59687;37.520;15.068;2022-10-17T04:35:01;16.01;85.42
71839;SHT31;59687;37.520;15.068;2022-10-17T04:37:28;15.98;85.48
71839;SHT31;59687;37.520;15.068;2022-10-17T04:39:57;15.94;85.54
71839;SHT31;59687;37.520;15.068;2022-10-17T04:42:27;15.94;85.60
71839;SHT31;59687;37.520;15.068;2022-10-17T04:44:55;15.94;85.61
71839;SHT31;59687;37.520;15.068;2022-10-17T04:47:24;15.94;85.66
71839;SHT31;59687;37.520;15.068;2022-10-17T04:49:51;15.92;85.61
71839;SHT31;59687;37.520;15.068;2022-10-17T04:52:21;15.89;85.56
71839;SHT31;59687;37.520;15.068;2022-10-17T04:54:49;15.88;85.42
71839;SHT31;59687;37.520;15.068;2022-10-17T04:57:17;15.87;85.36
71839;SHT31;59687;37.520;15.068;2022-10-17T05:00:01;15.84;85.38
71839;SHT31;59687;37.520;15.068;2022-10-17T05:03:05;15.82;85.27
71839;SHT31;59687;37.520;15.068;2022-10-17T05:05:33;15.84;85.10
71839;SHT31;59687;37.520;15.068;2022-10-17T05:08:03;15.82;84.81
71839;SHT31;59687;37.520;15.068;2022-10-17T05:10:40;15.84;84.73
71839;SHT31;59687;37.520;15.068;2022-10-17T05:13:08;15.82;84.52
71839;SHT31;59687;37.520;15.068;2022-10-17T05:15:36;15.85;84.40
71839;SHT31;59687;37.520;15.068;2022-10-17T05:18:04;15.87;84.26
71839;SHT31;59687;37.520;15.068;2022-10-17T05:20:32;15.97;84.20
71839;SHT31;59687;37.520;15.068;2022-10-17T05:23:00;16.06;84.11
71839;SHT31;59687;37.520;15.068;2022-10-17T05:25:32;16.19;83.67
71839;SHT31;59687;37.520;15.068;2022-10-17T05:28:00;16.37;83.23
71839;SHT31;59687;37.520;15.068;2022-10-17T05:30:28;16.57;82.54
71839;SHT31;59687;37.520;15.068;2022-10-17T05:33:01;16.86;82.20
71839;SHT31;59687;37.520;15.068;2022-10-17T05:35:30;17.18;80.76
71839;SHT31;59687;37.520;15.068;2022-10-17T05:37:57;17.53;79.88
71839;SHT31;59687;37.520;15.068;2022-10-17T05:40:24;17.89;77.95
71839;SHT31;59687;37.520;15.068;2022-10-17T05:42:53;18.32;76.51
71839;SHT31;59687;37.520;15.068;2022-10-17T05:45:22;18.78;74.74
71839;SHT31;59687;37.520;15.068;2022-10-17T05:47:49;19.23;73.47
71839;SHT31;59687;37.520;15.068;2022-10-17T05:50:17;19.68;72.15
71839;SHT31;59687;37.520;15.068;2022-10-17T05:53:05;20.30;69.98
71839;SHT31;59687;37.520;15.068;2022-10-17T05:55:38;20.72;68.14
71839;SHT31;59687;37.520;15.068;2022-10-17T05:58:05;21.15;66.66
71839;SHT31;59687;37.520;15.068;2022-10-17T06:00:37;21.63;64.98
71839;SHT31;59687;37.520;15.068;2022-10-17T06:03:10;22.09;64.11
71839;SHT31;59687;37.520;15.068;2022-10-17T06:05:39;22.51;62.67
71839;SHT31;59687;37.520;15.068;2022-10-17T06:08:06;22.96;61.52
71839;SHT31;59687;37.520;15.068;2022-10-17T06:10:35;23.40;60.43
71839;SHT31;59687;37.520;15.068;2022-10-17T06:13:02;23.75;58.72
71839;SHT31;59687;37.520;15.068;2022-10-17T06:15:29;24.11;58.35
71839;SHT31;59687;37.520;15.068;2022-10-17T06:18:01;24.51;56.99
71839;SHT31;59687;37.520;15.068;2022-10-17T06:20:29;24.87;55.55
71839;SHT31;59687;37.520;15.068;2022-10-17T06:22:56;25.24;54.82
71839;SHT31;59687;37.520;15.068;2022-10-17T06:25:45;25.59;53.99
71839;SHT31;59687;37.520;15.068;2022-10-17T06:28:12;25.98;53.26
71839;SHT31;59687;37.520;15.068;2022-10-17T06:30:40;26.31;52.50
71839;SHT31;59687;37.520;15.068;2022-10-17T06:33:08;26.66;51.46
71839;SHT31;59687;37.520;15.068;2022-10-17T06:35:35;27.12;50.50
71839;SHT31;59687;37.520;15.068;2022-10-17T06:38:03;27.52;49.73
71839;SHT31;59687;37.520;15.068;2022-10-17T06:40:31;27.97;49.08
71839;SHT31;59687;37.520;15.068;2022-10-17T06:42:59;28.35;48.56
71839;SHT31;59687;37.520;15.068;2022-10-17T06:45:53;28.77;47.79
71839;SHT31;59687;37.520;15.068;2022-10-17T06:48:38;29.15;46.96
71839;SHT31;59687;37.520;15.068;2022-10-17T06:51:11;29.43;46.71
71839;SHT31;59687;37.520;15.068;2022-10-17T06:53:48;29.65;46.36
71839;SHT31;59687;37.520;15.068;2022-10-17T06:56:43;29.84;46.31
71839;SHT31;59687;37.520;15.068;2022-10-17T06:59:29;30.04;46.57
71839;SHT31;59687;37.520;15.068;2022-10-17T07:02:22;30.27;46.59
71839;SHT31;59687;37.520;15.068;2022-10-17T07:04:51;30.52;46.04
71839;SHT31;59687;37.520;15.068;2022-10-17T07:07:21;30.53;45.31
71839;SHT31;59687;37.520;15.068;2022-10-17T07:09:50;30.60;45.22
71839;SHT31;59687;37.520;15.068;2022-10-17T07:12:19;30.73;44.93
71839;SHT31;59687;37.520;15.068;2022-10-17T07:14:46;30.81;45.40
71839;SHT31;59687;37.520;15.068;2022-10-17T07:17:16;30.88;44.83
71839;SHT31;59687;37.520;15.068;2022-10-17T07:19:44;31.21;44.28
71839;SHT31;59687;37.520;15.068;2022-10-17T07:22:11;31.41;43.71
71839;SHT31;59687;37.520;15.068;2022-10-17T07:24:43;31.65;43.01
71839;SHT31;59687;37.520;15.068;2022-10-17T07:27:16;31.50;43.24
71839;SHT31;59687;37.520;15.068;2022-10-17T07:29:43;31.69;42.90
71839;SHT31;59687;37.520;15.068;2022-10-17T07:32:17;31.59;42.45
71839;SHT31;59687;37.520;15.068;2022-10-17T07:34:44;31.05;43.36
71839;SHT31;59687;37.520;15.068;2022-10-17T07:37:11;30.88;43.68
71839;SHT31;59687;37.520;15.068;2022-10-17T07:39:44;30.69;43.76
71839;SHT31;59687;37.520;15.068;2022-10-17T07:42:11;30.24;44.69
71839;SHT31;59687;37.520;15.068;2022-10-17T07:44:40;30.33;44.18
71839;SHT31;59687;37.520;15.068;2022-10-17T07:47:08;30.97;42.91
71839;SHT31;59687;37.520;15.068;2022-10-17T07:49:36;30.60;43.99
71839;SHT31;59687;37.520;15.068;2022-10-17T07:52:10;31.38;42.82
71839;SHT31;59687;37.520;15.068;2022-10-17T07:54:37;31.56;40.46
71839;SHT31;59687;37.520;15.068;2022-10-17T07:57:05;31.32;40.74
71839;SHT31;59687;37.520;15.068;2022-10-17T07:59:33;30.90;40.81
71839;SHT31;59687;37.520;15.068;2022-10-17T08:02:00;30.66;41.28
71839;SHT31;59687;37.520;15.068;2022-10-17T08:04:28;30.86;41.65
71839;SHT31;59687;37.520;15.068;2022-10-17T08:06:55;31.05;41.71
71839;SHT31;59687;37.520;15.068;2022-10-17T08:09:22;31.54;41.30
71839;SHT31;59687;37.520;15.068;2022-10-17T08:11:49;31.90;40.02
71839;SHT31;59687;37.520;15.068;2022-10-17T08:14:16;32.36;39.88
71839;SHT31;59687;37.520;15.068;2022-10-17T08:16:44;32.73;38.33
71839;SHT31;59687;37.520;15.068;2022-10-17T08:19:11;32.63;39.64
71839;SHT31;59687;37.520;15.068;2022-10-17T08:21:38;32.80;39.89
71839;SHT31;59687;37.520;15.068;2022-10-17T08:24:07;32.29;40.58
71839;SHT31;59687;37.520;15.068;2022-10-17T08:26:34;32.52;39.25
71839;SHT31;59687;37.520;15.068;2022-10-17T08:29:03;32.66;40.08
71839;SHT31;59687;37.520;15.068;2022-10-17T08:31:30;32.60;38.97
71839;SHT31;59687;37.520;15.068;2022-10-17T08:33:57;32.05;37.39
71839;SHT31;59687;37.520;15.068;2022-10-17T08:36:24;32.81;37.80
71839;SHT31;59687;37.520;15.068;2022-10-17T08:38:51;33.10;37.78
71839;SHT31;59687;37.520;15.068;2022-10-17T08:47:02;33.60;34.63
71839;SHT31;59687;37.520;15.068;2022-10-17T08:52:25;33.48;35.25
71839;SHT31;59687;37.520;15.068;2022-10-17T08:54:55;32.96;35.64
71839;SHT31;59687;37.520;15.068;2022-10-17T08:57:22;32.98;35.54
71839;SHT31;59687;37.520;15.068;2022-10-17T08:59:52;33.26;35.61
71839;SHT31;59687;37.520;15.068;2022-10-17T09:02:47;34.55;34.41
71839;SHT31;59687;37.520;15.068;2022-10-17T09:18:35;34.24;33.13
71839;SHT31;59687;37.520;15.068;2022-10-17T09:21:32;33.80;33.69
71839;SHT31;59687;37.520;15.068;2022-10-17T09:24:06;32.64;35.13
71839;SHT31;59687;37.520;15.068;2022-10-17T09:26:41;31.72;36.40
71839;SHT31;59687;37.520;15.068;2022-10-17T09:29:23;31.62;36.46
71839;SHT31;59687;37.520;15.068;2022-10-17T09:31:58;31.04;37.90
71839;SHT31;59687;37.520;15.068;2022-10-17T09:34:29;31.47;37.46
71839;SHT31;59687;37.520;15.068;2022-10-17T09:36:59;32.79;35.78
71839;SHT31;59687;37.520;15.068;2022-10-17T09:39:28;33.01;34.46
71839;SHT31;59687;37.520;15.068;2022-10-17T09:41:59;33.35;34.40
71839;SHT31;59687;37.520;15.068;2022-10-17T09:44:36;34.44;32.94
71839;SHT31;59687;37.520;15.068;2022-10-17T09:49:38;35.91;31.54
71839;SHT31;59687;37.520;15.068;2022-10-17T09:52:15;35.96;32.07
71839;SHT31;59687;37.520;15.068;2022-10-17T09:54:46;36.59;30.82
71839;SHT31;59687;37.520;15.068;2022-10-17T09:57:15;36.53;30.17
71839;SHT31;59687;37.520;15.068;2022-10-17T10:00:04;37.04;29.82
71839;SHT31;59687;37.520;15.068;2022-10-17T10:02:41;36.86;30.26
71839;SHT31;59687;37.520;15.068;2022-10-17T10:05:17;37.25;29.53
71839;SHT31;59687;37.520;15.068;2022-10-17T10:08:15;37.70;28.78
71839;SHT31;59687;37.520;15.068;2022-10-17T10:10:44;40.27;26.55
71839;SHT31;59687;37.520;15.068;2022-10-17T10:15:49;40.28;25.86
71839;SHT31;59687;37.520;15.068;2022-10-17T10:18:35;41.85;23.58
71839;SHT31;59687;37.520;15.068;2022-10-17T10:23:37;42.83;22.42
71839;SHT31;59687;37.520;15.068;2022-10-17T10:28:58;40.51;23.16
71839;SHT31;59687;37.520;15.068;2022-10-17T10:31:35;39.44;23.64
71839;SHT31;59687;37.520;15.068;2022-10-17T10:34:34;39.27;23.88
71839;SHT31;59687;37.520;15.068;2022-10-17T10:37:05;40.04;23.04
71839;SHT31;59687;37.520;15.068;2022-10-17T10:39:43;40.58;22.00
71839;SHT31;59687;37.520;15.068;2022-10-17T10:42:24;40.93;20.89
71839;SHT31;59687;37.520;15.068;2022-10-17T10:44:53;40.76;20.87
71839;SHT31;59687;37.520;15.068;2022-10-17T10:47:27;41.14;20.05
71839;SHT31;59687;37.520;15.068;2022-10-17T10:50:08;38.59;22.10
71839;SHT31;59687;37.520;15.068;2022-10-17T10:55:51;40.00;21.56
71839;SHT31;59687;37.520;15.068;2022-10-17T11:00:59;39.25;23.37
71839;SHT31;59687;37.520;15.068;2022-10-17T11:03:51;37.80;22.69
71839;SHT31;59687;37.520;15.068;2022-10-17T11:06:24;37.14;26.40
71839;SHT31;59687;37.520;15.068;2022-10-17T11:09:44;37.31;25.56
71839;SHT31;59687;37.520;15.068;2022-10-17T11:12:00;36.49;26.98
71839;SHT31;59687;37.520;15.068;2022-10-17T11:17:17;38.10;25.55
71839;SHT31;59687;37.520;15.068;2022-10-17T11:22:47;38.89;25.26
71839;SHT31;59687;37.520;15.068;2022-10-17T11:25:44;38.96;25.55
71839;SHT31;59687;37.520;15.068;2022-10-17T11:28:17;39.90;24.43
71839;SHT31;59687;37.520;15.068;2022-10-17T11:31:13;39.77;25.10
71839;SHT31;59687;37.520;15.068;2022-10-17T11:34:02;39.55;25.78
71839;SHT31;59687;37.520;15.068;2022-10-17T11:36:33;40.00;23.60
71839;SHT31;59687;37.520;15.068;2022-10-17T11:39:04;39.02;26.83
71839;SHT31;59687;37.520;15.068;2022-10-17T11:41:46;38.53;26.37
71839;SHT31;59687;37.520;15.068;2022-10-17T11:44:24;38.10;27.58
71839;SHT31;59687;37.520;15.068;2022-10-17T11:46:59;38.32;26.93
71839;SHT31;59687;37.520;15.068;2022-10-17T11:49:33;38.62;27.43
71839;SHT31;59687;37.520;15.068;2022-10-17T11:54:39;37.01;28.88
71839;SHT31;59687;37.520;15.068;2022-10-17T11:59:57;37.39;28.66
71839;SHT31;59687;37.520;15.068;2022-10-17T12:05:21;36.80;28.18
71839;SHT31;59687;37.520;15.068;2022-10-17T12:16:34;37.20;27.53
71839;SHT31;59687;37.520;15.068;2022-10-17T12:24:44;37.46;27.89
71839;SHT31;59687;37.520;15.068;2022-10-17T12:30:05;36.88;28.75
71839;SHT31;59687;37.520;15.068;2022-10-17T12:35:36;38.31;27.82
71839;SHT31;59687;37.520;15.068;2022-10-17T12:38:14;38.00;27.16
71839;SHT31;59687;37.520;15.068;2022-10-17T12:45:53;37.97;27.42
71839;SHT31;59687;37.520;15.068;2022-10-17T12:51:08;36.12;30.86
71839;SHT31;59687;37.520;15.068;2022-10-17T12:54:01;34.96;28.12
71839;SHT31;59687;37.520;15.068;2022-10-17T12:56:43;35.45;30.56
71839;SHT31;59687;37.520;15.068;2022-10-17T13:01:45;35.70;28.88
71839;SHT31;59687;37.520;15.068;2022-10-17T13:04:13;35.87;29.84
71839;SHT31;59687;37.520;15.068;2022-10-17T13:06:47;34.42;32.35
71839;SHT31;59687;37.520;15.068;2022-10-17T13:11:52;34.35;30.27
71839;SHT31;59687;37.520;15.068;2022-10-17T13:14:21;34.01;30.95
71839;SHT31;59687;37.520;15.068;2022-10-17T13:17:01;33.21;33.33
71839;SHT31;59687;37.520;15.068;2022-10-17T13:19:49;33.29;33.04
71839;SHT31;59687;37.520;15.068;2022-10-17T13:22:22;32.98;31.52
71839;SHT31;59687;37.520;15.068;2022-10-17T13:24:51;32.52;32.20
71839;SHT31;59687;37.520;15.068;2022-10-17T13:27:31;32.29;34.17
71839;SHT31;59687;37.520;15.068;2022-10-17T13:32:47;31.12;36.46
71839;SHT31;59687;37.520;15.068;2022-10-17T13:35:21;31.38;36.16
71839;SHT31;59687;37.520;15.068;2022-10-17T13:37:51;31.25;36.37
71839;SHT31;59687;37.520;15.068;2022-10-17T13:40:22;30.86;36.81
71839;SHT31;59687;37.520;15.068;2022-10-17T13:43:18;31.16;37.61
71839;SHT31;59687;37.520;15.068;2022-10-17T13:45:50;30.60;37.19
71839;SHT31;59687;37.520;15.068;2022-10-17T13:48:20;31.07;37.13
71839;SHT31;59687;37.520;15.068;2022-10-17T13:50:51;30.90;35.29
71839;SHT31;59687;37.520;15.068;2022-10-17T13:56:05;29.22;40.33
71839;SHT31;59687;37.520;15.068;2022-10-17T13:58:57;29.41;38.21
71839;SHT31;59687;37.520;15.068;2022-10-17T14:01:26;29.86;37.41
71839;SHT31;59687;37.520;15.068;2022-10-17T14:03:54;29.73;39.02
71839;SHT31;59687;37.520;15.068;2022-10-17T14:06:33;29.63;39.11
71839;SHT31;59687;37.520;15.068;2022-10-17T14:09:05;29.77;39.25
71839;SHT31;59687;37.520;15.068;2022-10-17T14:11:40;29.50;37.95
71839;SHT31;59687;37.520;15.068;2022-10-17T14:14:22;29.06;39.46
71839;SHT31;59687;37.520;15.068;2022-10-17T14:16:50;28.72;39.97
71839;SHT31;59687;37.520;15.068;2022-10-17T14:19:28;27.92;41.21
71839;SHT31;59687;37.520;15.068;2022-10-17T14:24:49;26.97;42.95
71839;SHT31;59687;37.520;15.068;2022-10-17T14:27:52;26.63;45.64
71839;SHT31;59687;37.520;15.068;2022-10-17T14:33:17;26.34;47.17
71839;SHT31;59687;37.520;15.068;2022-10-17T14:35:55;26.11;47.05
71839;SHT31;59687;37.520;15.068;2022-10-17T14:38:23;26.44;46.51
71839;SHT31;59687;37.520;15.068;2022-10-17T14:44:03;26.93;46.89
71839;SHT31;59687;37.520;15.068;2022-10-17T14:46:34;27.12;45.93
71839;SHT31;59687;37.520;15.068;2022-10-17T14:49:05;27.03;45.03
71839;SHT31;59687;37.520;15.068;2022-10-17T14:51:33;27.04;44.89
71839;SHT31;59687;37.520;15.068;2022-10-17T14:54:22;26.94;41.67
71839;SHT31;59687;37.520;15.068;2022-10-17T14:56:51;26.59;44.24
71839;SHT31;59687;37.520;15.068;2022-10-17T14:59:19;25.97;42.40
71839;SHT31;59687;37.520;15.068;2022-10-17T15:02:01;25.63;44.64
71839;SHT31;59687;37.520;15.068;2022-10-17T15:04:28;25.25;46.83
71839;SHT31;59687;37.520;15.068;2022-10-17T15:06:55;25.08;48.28
71839;SHT31;59687;37.520;15.068;2022-10-17T15:09:24;24.76;50.43
71839;SHT31;59687;37.520;15.068;2022-10-17T15:11:54;25.11;51.06
71839;SHT31;59687;37.520;15.068;2022-10-17T15:14:22;25.25;49.93
71839;SHT31;59687;37.520;15.068;2022-10-17T15:16:49;25.13;49.26
71839;SHT31;59687;37.520;15.068;2022-10-17T15:19:16;25.31;49.47
71839;SHT31;59687;37.520;15.068;2022-10-17T15:21:46;24.93;48.05
71839;SHT31;59687;37.520;15.068;2022-10-17T15:24:14;24.62;50.81
71839;SHT31;59687;37.520;15.068;2022-10-17T15:26:41;24.61;52.10
71839;SHT31;59687;37.520;15.068;2022-10-17T15:29:13;24.55;54.05
71839;SHT31;59687;37.520;15.068;2022-10-17T15:31:41;24.09;53.09
71839;SHT31;59687;37.520;15.068;2022-10-17T15:34:08;23.79;54.49
71839;SHT31;59687;37.520;15.068;2022-10-17T15:36:48;23.63;55.36
71839;SHT31;59687;37.520;15.068;2022-10-17T15:39:19;23.47;55.21
71839;SHT31;59687;37.520;15.068;2022-10-17T15:41:49;23.32;56.44
71839;SHT31;59687;37.520;15.068;2022-10-17T15:44:18;23.23;57.10
71839;SHT31;59687;37.520;15.068;2022-10-17T15:46:45;23.18;57.64
71839;SHT31;59687;37.520;15.068;2022-10-17T15:49:13;22.76;59.21
71839;SHT31;59687;37.520;15.068;2022-10-17T15:51:42;22.48;60.39
71839;SHT31;59687;37.520;15.068;2022-10-17T15:54:09;22.31;60.98
71839;SHT31;59687;37.520;15.068;2022-10-17T15:56:47;22.16;61.19
71839;SHT31;59687;37.520;15.068;2022-10-17T15:59:20;22.01;61.32
71839;SHT31;59687;37.520;15.068;2022-10-17T16:01:48;21.83;62.27
71839;SHT31;59687;37.520;15.068;2022-10-17T16:04:15;21.69;63.00
71839;SHT31;59687;37.520;15.068;2022-10-17T16:06:43;21.52;63.89
71839;SHT31;59687;37.520;15.068;2022-10-17T16:09:11;21.38;64.50
71839;SHT31;59687;37.520;15.068;2022-10-17T16:11:40;21.31;64.93
71839;SHT31;59687;37.520;15.068;2022-10-17T16:14:15;21.17;65.41
71839;SHT31;59687;37.520;15.068;2022-10-17T16:16:42;21.08;65.88
71839;SHT31;59687;37.520;15.068;2022-10-17T16:19:11;20.96;66.61
71839;SHT31;59687;37.520;15.068;2022-10-17T16:21:39;20.89;67.12
71839;SHT31;59687;37.520;15.068;2022-10-17T16:24:10;20.78;67.04
71839;SHT31;59687;37.520;15.068;2022-10-17T16:26:38;20.69;67.64
71839;SHT31;59687;37.520;15.068;2022-10-17T16:29:05;20.64;67.94
71839;SHT31;59687;37.520;15.068;2022-10-17T16:33:53;20.59;68.83
71839;SHT31;59687;37.520;15.068;2022-10-17T16:36:21;20.55;68.93
71839;SHT31;59687;37.520;15.068;2022-10-17T16:38:49;20.52;68.91
71839;SHT31;59687;37.520;15.068;2022-10-17T16:43:50;20.45;69.36
71839;SHT31;59687;37.520;15.068;2022-10-17T16:46:18;20.38;69.44
71839;SHT31;59687;37.520;15.068;2022-10-17T16:48:46;20.35;69.40
71839;SHT31;59687;37.520;15.068;2022-10-17T16:51:16;20.33;69.61
71839;SHT31;59687;37.520;15.068;2022-10-17T16:53:45;20.30;69.47
71839;SHT31;59687;37.520;15.068;2022-10-17T16:56:16;20.24;69.54
71839;SHT31;59687;37.520;15.068;2022-10-17T16:58:44;20.23;69.84
71839;SHT31;59687;37.520;15.068;2022-10-17T17:01:14;20.18;70.14
71839;SHT31;59687;37.520;15.068;2022-10-17T17:03:44;20.18;70.35
71839;SHT31;59687;37.520;15.068;2022-10-17T17:06:13;20.13;70.37
71839;SHT31;59687;37.520;15.068;2022-10-17T17:08:41;20.06;70.83
71839;SHT31;59687;37.520;15.068;2022-10-17T17:11:10;20.01;70.62
71839;SHT31;59687;37.520;15.068;2022-10-17T17:13:41;20.00;70.90
71839;SHT31;59687;37.520;15.068;2022-10-17T17:16:10;19.97;71.28
71839;SHT31;59687;37.520;15.068;2022-10-17T17:18:38;19.96;71.32
71839;SHT31;59687;37.520;15.068;2022-10-17T17:21:07;19.93;71.55
71839;SHT31;59687;37.520;15.068;2022-10-17T17:23:36;19.90;71.80
71839;SHT31;59687;37.520;15.068;2022-10-17T17:26:10;19.97;71.54
71839;SHT31;59687;37.520;15.068;2022-10-17T17:28:38;19.90;71.65
71839;SHT31;59687;37.520;15.068;2022-10-17T17:31:07;19.87;71.92
71839;SHT31;59687;37.520;15.068;2022-10-17T17:33:37;19.85;71.86
71839;SHT31;59687;37.520;15.068;2022-10-17T17:36:06;19.81;72.19
71839;SHT31;59687;37.520;15.068;2022-10-17T17:38:37;19.79;72.10
71839;SHT31;59687;37.520;15.068;2022-10-17T17:41:10;19.82;72.07
71839;SHT31;59687;37.520;15.068;2022-10-17T17:43:39;19.79;72.04
71839;SHT31;59687;37.520;15.068;2022-10-17T17:46:06;19.79;71.98
71839;SHT31;59687;37.520;15.068;2022-10-17T17:48:39;19.78;72.05
71839;SHT31;59687;37.520;15.068;2022-10-17T17:51:09;19.72;72.35
71839;SHT31;59687;37.520;15.068;2022-10-17T17:53:37;19.69;72.59
71839;SHT31;59687;37.520;15.068;2022-10-17T17:56:16;19.69;72.59
71839;SHT31;59687;37.520;15.068;2022-10-17T17:58:45;19.72;72.50
71839;SHT31;59687;37.520;15.068;2022-10-17T18:01:16;19.71;72.41
71839;SHT31;59687;37.520;15.068;2022-10-17T18:03:50;19.68;72.66
71839;SHT31;59687;37.520;15.068;2022-10-17T18:06:19;19.68;72.77
71839;SHT31;59687;37.520;15.068;2022-10-17T18:08:49;19.65;71.23
71839;SHT31;59687;37.520;15.068;2022-10-17T18:11:20;19.61;71.24